sensor_id;sensor_type;location;lat;lon;timestamp;temperature;humidity
23323;DHT22;11833;52.554;13.554;2023-02-15T01:00:23;3.30;99.90
23323;DHT22;11833;52.554;13.554;2023-02-15T01:02:48;3.20;99.90
23323;DHT22;11833;52.554;13.554;2023-02-15T01:05:14;3.20;99.90
23323;DHT22;11833;52.554;13.554;2023-02-15T01:07:40;3.20;99.90
23323;DHT22;11833;52.554;13.554;2023-02-15T01:10:07;3.20;99.90
23323;DHT22;11833;52.554;13.554;2023-02-15T01:12:33;3.20;99.90
23323;DHT22;11833;52.554;13.554;2023-02-15T01:14:59;3.20;99.90
23323;DHT22;11833;52.554;13.554;2023-02-15T01:17:25;3.10;99.90
23323;DHT22;11833;52.554;13.554;2023-02-15T01:19:51;3.00;99.90
23323;DHT22;11833;52.554;13.554;2023-02-15T01:22:18;3.10;99.90
23323;DHT22;11833;52.554;13.554;2023-02-15T01:24:44;3.10;99.90
23323;DHT22;11833;52.554;13.554;2023-02-15T01:27:10;3.00;99.90
23323;DHT22;11833;52.554;13.554;2023-02-15T01:29:36;3.00;99.90
23323;DHT22;11833;52.554;13.554;2023-02-15T01:32:01;3.00;99.90
23323;DHT22;11833;52.554;13.554;2023-02-15T01:34:29;2.90;99.90
23323;DHT22;11833;52.554;13.554;2023-02-15T01:36:54;2.90;99.90
23323;DHT22;11833;52.554;13.554;2023-02-15T01:39:20;2.90;99.90
23323;DHT22;11833;52.554;13.554;2023-02-15T01:41:46;2.90;99.90
23323;DHT22;11833;52.554;13.554;2023-02-15T01:50:33;2.80;99.90
23323;DHT22;11833;52.554;13.554;2023-02-15T01:58:29;2.60;99.90
23323;DHT22;11833;52.554;13.554;2023-02-15T02:00:57;2.50;99.90
23323;DHT22;11833;52.554;13.554;2023-02-15T02:03:40;2.60;99.90
23323;DHT22;11833;52.554;13.554;2023-02-15T02:06:27;2.50;99.90
23323;DHT22;11833;52.554;13.554;2023-02-15T02:08:54;2.50;99.90
23323;DHT22;11833;52.554;13.554;2023-02-15T02:11:20;2.40;99.90
23323;DHT22;11833;52.554;13.554;2023-02-15T02:13:46;2.30;99.90
23323;DHT22;11833;52.554;13.554;2023-02-15T02:19:52;2.30;99.90
23323;DHT22;11833;52.554;13.554;2023-02-15T02:22:55;2.20;99.90
23323;DHT22;11833;52.554;13.554;2023-02-15T02:29:26;2.20;99.90
23323;DHT22;11833;52.554;13.554;2023-02-15T02:38:03;2.00;99.90
23323;DHT22;11833;52.554;13.554;2023-02-15T02:40:57;2.00;99.90
23323;DHT22;11833;52.554;13.554;2023-02-15T02:46:26;1.90;99.90
23323;DHT22;11833;52.554;13.554;2023-02-15T02:48:55;1.90;99.90
23323;DHT22;11833;52.554;13.554;2023-02-15T02:51:22;1.90;99.90
23323;DHT22;11833;52.554;13.554;2023-02-15T02:53:51;1.80;99.90
23323;DHT22;11833;52.554;13.554;2023-02-15T02:56:37;1.80;99.90
23323;DHT22;11833;52.554;13.554;2023-02-15T02:59:17;1.80;99.90
23323;DHT22;11833;52.554;13.554;2023-02-15T03:02:01;1.80;99.90
23323;DHT22;11833;52.554;13.554;2023-02-15T03:04:47;1.70;99.90
23323;DHT22;11833;52.554;13.554;2023-02-15T03:07:24;1.70;99.90
23323;DHT22;11833;52.554;13.554;2023-02-15T03:09:55;1.60;99.90
23323;DHT22;11833;52.554;13.554;2023-02-15T03:12:32;1.50;99.90
23323;DHT22;11833;52.554;13.554;2023-02-15T03:17:39;1.50;99.90
23323;DHT22;11833;52.554;13.554;2023-02-15T03:20:20;1.50;99.90
23323;DHT22;11833;52.554;13.554;2023-02-15T03:23:26;1.50;99.90
23323;DHT22;11833;52.554;13.554;2023-02-15T03:26:01;1.50;99.90
23323;DHT22;11833;52.554;13.554;2023-02-15T03:28:43;1.40;99.90
23323;DHT22;11833;52.554;13.554;2023-02-15T03:31:11;1.40;99.90
23323;DHT22;11833;52.554;13.554;2023-02-15T03:33:44;1.30;99.90
23323;DHT22;11833;52.554;13.554;2023-02-15T03:36:24;1.30;99.90
23323;DHT22;11833;52.554;13.554;2023-02-15T03:39:10;1.30;99.90
23323;DHT22;11833;52.554;13.554;2023-02-15T03:41:44;1.30;99.90
23323;DHT22;11833;52.554;13.554;2023-02-15T03:44:27;1.30;99.90
23323;DHT22;11833;52.554;13.554;2023-02-15T03:47:06;1.30;99.90
23323;DHT22;11833;52.554;13.554;2023-02-15T03:52:55;1.20;99.90
23323;DHT22;11833;52.554;13.554;2023-02-15T03:55:21;1.20;99.90
23323;DHT22;11833;52.554;13.554;2023-02-15T03:57:47;1.10;99.90
23323;DHT22;11833;52.554;13.554;2023-02-15T04:00:36;1.10;99.90
23323;DHT22;11833;52.554;13.554;2023-02-15T04:03:39;1.10;99.90
23323;DHT22;11833;52.554;13.554;2023-02-15T04:06:06;1.10;99.90
23323;DHT22;11833;52.554;13.554;2023-02-15T04:08:32;1.10;99.90
23323;DHT22;11833;52.554;13.554;2023-02-15T04:11:16;1.10;99.90
23323;DHT22;11833;52.554;13.554;2023-02-15T04:13:42;1.10;99.90
23323;DHT22;11833;52.554;13.554;2023-02-15T04:16:08;1.00;99.90
23323;DHT22;11833;52.554;13.554;2023-02-15T04:18:42;1.10;99.90
23323;DHT22;11833;52.554;13.554;2023-02-15T04:21:29;1.00;99.90
23323;DHT22;11833;52.554;13.554;2023-02-15T04:24:14;1.00;99.90
23323;DHT22;11833;52.554;13.554;2023-02-15T04:27:00;1.00;99.90
23323;DHT22;11833;52.554;13.554;2023-02-15T04:29:27;1.00;99.90
23323;DHT22;11833;52.554;13.554;2023-02-15T04:31:54;0.90;99.90
23323;DHT22;11833;52.554;13.554;2023-02-15T04:34:22;1.00;99.90
23323;DHT22;11833;52.554;13.554;2023-02-15T04:36:47;0.90;99.90
23323;DHT22;11833;52.554;13.554;2023-02-15T04:39:15;0.90;99.90
23323;DHT22;11833;52.554;13.554;2023-02-15T04:41:41;0.90;99.90
23323;DHT22;11833;52.554;13.554;2023-02-15T04:44:07;0.90;99.90
23323;DHT22;11833;52.554;13.554;2023-02-15T04:46:33;0.90;99.90
23323;DHT22;11833;52.554;13.554;2023-02-15T04:48:59;0.80;99.90
23323;DHT22;11833;52.554;13.554;2023-02-15T04:51:25;0.90;99.90
23323;DHT22;11833;52.554;13.554;2023-02-15T04:53:51;0.80;99.90
23323;DHT22;11833;52.554;13.554;2023-02-15T04:56:20;0.80;99.90
23323;DHT22;11833;52.554;13.554;2023-02-15T04:58:46;0.80;99.90
23323;DHT22;11833;52.554;13.554;2023-02-15T05:01:12;0.80;99.90
23323;DHT22;11833;52.554;13.554;2023-02-15T05:03:38;0.90;99.90
23323;DHT22;11833;52.554;13.554;2023-02-15T05:06:04;0.80;99.90
23323;DHT22;11833;52.554;13.554;2023-02-15T05:08:30;0.80;99.90
23323;DHT22;11833;52.554;13.554;2023-02-15T05:10:57;0.70;99.90
23323;DHT22;11833;52.554;13.554;2023-02-15T05:13:24;0.70;99.90
23323;DHT22;11833;52.554;13.554;2023-02-15T05:15:51;0.80;99.90
23323;DHT22;11833;52.554;13.554;2023-02-15T05:18:19;0.80;99.90
23323;DHT22;11833;52.554;13.554;2023-02-15T05:20:45;0.70;99.90
23323;DHT22;11833;52.554;13.554;2023-02-15T05:23:11;0.70;99.90
23323;DHT22;11833;52.554;13.554;2023-02-15T05:25:37;0.70;99.90
23323;DHT22;11833;52.554;13.554;2023-02-15T05:28:27;0.70;99.90
23323;DHT22;11833;52.554;13.554;2023-02-15T05:33:37;0.60;99.90
23323;DHT22;11833;52.554;13.554;2023-02-15T05:36:04;0.60;99.90
23323;DHT22;11833;52.554;13.554;2023-02-15T05:38:31;0.60;99.90
23323;DHT22;11833;52.554;13.554;2023-02-15T05:40:57;0.70;99.90
23323;DHT22;11833;52.554;13.554;2023-02-15T05:43:24;0.70;99.90
23323;DHT22;11833;52.554;13.554;2023-02-15T05:45:54;0.60;99.90
23323;DHT22;11833;52.554;13.554;2023-02-15T05:48:21;0.70;99.90
23323;DHT22;11833;52.554;13.554;2023-02-15T05:51:04;0.70;99.90
23323;DHT22;11833;52.554;13.554;2023-02-15T05:53:34;0.70;99.90
23323;DHT22;11833;52.554;13.554;2023-02-15T05:56:01;0.80;99.90
23323;DHT22;11833;52.554;13.554;2023-02-15T05:58:30;0.80;99.90
23323;DHT22;11833;52.554;13.554;2023-02-15T06:01:06;0.80;99.90
23323;DHT22;11833;52.554;13.554;2023-02-15T06:03:43;0.80;99.90
23323;DHT22;11833;52.554;13.554;2023-02-15T06:06:09;0.80;99.90
23323;DHT22;11833;52.554;13.554;2023-02-15T06:08:36;0.90;99.90
23323;DHT22;11833;52.554;13.554;2023-02-15T06:11:03;0.90;99.90
23323;DHT22;11833;52.554;13.554;2023-02-15T06:13:31;1.00;99.90
23323;DHT22;11833;52.554;13.554;2023-02-15T06:15:57;0.80;99.90
23323;DHT22;11833;52.554;13.554;2023-02-15T06:18:23;0.70;99.90
23323;DHT22;11833;52.554;13.554;2023-02-15T06:20:49;0.60;99.90
23323;DHT22;11833;52.554;13.554;2023-02-15T06:23:15;0.60;99.90
23323;DHT22;11833;52.554;13.554;2023-02-15T06:25:41;0.60;99.90
23323;DHT22;11833;52.554;13.554;2023-02-15T06:28:07;0.60;99.90
23323;DHT22;11833;52.554;13.554;2023-02-15T06:30:33;0.60;99.90
23323;DHT22;11833;52.554;13.554;2023-02-15T06:32:58;0.70;99.90
23323;DHT22;11833;52.554;13.554;2023-02-15T06:35:24;0.70;99.90
23323;DHT22;11833;52.554;13.554;2023-02-15T06:37:50;0.80;99.90
23323;DHT22;11833;52.554;13.554;2023-02-15T06:40:16;0.70;99.90
23323;DHT22;11833;52.554;13.554;2023-02-15T06:42:42;0.80;99.90
23323;DHT22;11833;52.554;13.554;2023-02-15T06:45:09;0.80;99.90
23323;DHT22;11833;52.554;13.554;2023-02-15T06:47:35;0.70;99.90
23323;DHT22;11833;52.554;13.554;2023-02-15T06:50:01;0.70;99.90
23323;DHT22;11833;52.554;13.554;2023-02-15T06:52:27;0.70;99.90
23323;DHT22;11833;52.554;13.554;2023-02-15T06:54:54;0.70;99.90
23323;DHT22;11833;52.554;13.554;2023-02-15T06:57:20;0.80;99.90
23323;DHT22;11833;52.554;13.554;2023-02-15T06:59:46;0.70;99.90
23323;DHT22;11833;52.554;13.554;2023-02-15T07:02:12;0.70;99.90
23323;DHT22;11833;52.554;13.554;2023-02-15T07:04:38;0.70;99.90
23323;DHT22;11833;52.554;13.554;2023-02-15T07:07:07;0.90;99.90
23323;DHT22;11833;52.554;13.554;2023-02-15T07:09:34;0.90;99.90
23323;DHT22;11833;52.554;13.554;2023-02-15T07:12:00;0.90;99.90
23323;DHT22;11833;52.554;13.554;2023-02-15T07:14:44;0.70;99.90
23323;DHT22;11833;52.554;13.554;2023-02-15T07:17:10;0.60;99.90
23323;DHT22;11833;52.554;13.554;2023-02-15T07:19:35;0.60;99.90
23323;DHT22;11833;52.554;13.554;2023-02-15T07:22:01;0.70;99.90
23323;DHT22;11833;52.554;13.554;2023-02-15T07:24:29;0.60;99.90
23323;DHT22;11833;52.554;13.554;2023-02-15T07:26:54;0.80;99.90
23323;DHT22;11833;52.554;13.554;2023-02-15T07:29:20;0.80;99.90
23323;DHT22;11833;52.554;13.554;2023-02-15T07:31:46;0.90;99.90
23323;DHT22;11833;52.554;13.554;2023-02-15T07:34:11;1.00;99.90
23323;DHT22;11833;52.554;13.554;2023-02-15T07:36:37;0.90;99.90
23323;DHT22;11833;52.554;13.554;2023-02-15T07:39:03;0.80;99.90
23323;DHT22;11833;52.554;13.554;2023-02-15T07:41:29;0.90;99.90
23323;DHT22;11833;52.554;13.554;2023-02-15T07:43:54;0.90;99.90
23323;DHT22;11833;52.554;13.554;2023-02-15T07:46:20;0.80;99.90
23323;DHT22;11833;52.554;13.554;2023-02-15T07:48:47;0.80;99.90
23323;DHT22;11833;52.554;13.554;2023-02-15T07:51:13;0.90;99.90
23323;DHT22;11833;52.554;13.554;2023-02-15T07:53:40;0.90;99.90
23323;DHT22;11833;52.554;13.554;2023-02-15T07:56:11;0.90;99.90
23323;DHT22;11833;52.554;13.554;2023-02-15T07:58:38;1.00;99.90
23323;DHT22;11833;52.554;13.554;2023-02-15T08:01:17;1.00;99.90
23323;DHT22;11833;52.554;13.554;2023-02-15T08:03:47;1.00;99.90
23323;DHT22;11833;52.554;13.554;2023-02-15T08:06:13;1.10;99.90
23323;DHT22;11833;52.554;13.554;2023-02-15T08:08:40;1.10;99.90
23323;DHT22;11833;52.554;13.554;2023-02-15T08:16:41;1.30;99.90
23323;DHT22;11833;52.554;13.554;2023-02-15T08:21:46;1.30;99.90
23323;DHT22;11833;52.554;13.554;2023-02-15T08:24:15;1.20;99.90
23323;DHT22;11833;52.554;13.554;2023-02-15T08:26:41;1.30;99.90
23323;DHT22;11833;52.554;13.554;2023-02-15T08:29:09;1.60;99.90
23323;DHT22;11833;52.554;13.554;2023-02-15T08:31:36;1.90;99.90
23323;DHT22;11833;52.554;13.554;2023-02-15T08:34:03;2.00;99.90
23323;DHT22;11833;52.554;13.554;2023-02-15T08:36:30;1.80;99.90
23323;DHT22;11833;52.554;13.554;2023-02-15T08:38:58;1.90;99.90
23323;DHT22;11833;52.554;13.554;2023-02-15T08:41:27;1.70;99.90
23323;DHT22;11833;52.554;13.554;2023-02-15T08:43:59;1.60;99.90
23323;DHT22;11833;52.554;13.554;2023-02-15T08:46:30;1.80;99.90
23323;DHT22;11833;52.554;13.554;2023-02-15T08:48:58;2.00;99.90
23323;DHT22;11833;52.554;13.554;2023-02-15T08:51:30;1.60;99.90
23323;DHT22;11833;52.554;13.554;2023-02-15T08:54:02;1.90;99.90
23323;DHT22;11833;52.554;13.554;2023-02-15T08:56:38;1.60;99.90
23323;DHT22;11833;52.554;13.554;2023-02-15T08:59:06;1.60;99.90
23323;DHT22;11833;52.554;13.554;2023-02-15T09:01:33;1.60;99.90
23323;DHT22;11833;52.554;13.554;2023-02-15T09:04:04;1.60;99.90
23323;DHT22;11833;52.554;13.554;2023-02-15T09:06:32;1.80;99.90
23323;DHT22;11833;52.554;13.554;2023-02-15T09:08:57;2.00;99.90
23323;DHT22;11833;52.554;13.554;2023-02-15T09:11:26;2.10;99.90
23323;DHT22;11833;52.554;13.554;2023-02-15T09:13:55;2.00;99.90
23323;DHT22;11833;52.554;13.554;2023-02-15T09:16:24;2.00;99.90
23323;DHT22;11833;52.554;13.554;2023-02-15T09:18:51;2.00;99.90
23323;DHT22;11833;52.554;13.554;2023-02-15T09:21:22;2.10;99.90
23323;DHT22;11833;52.554;13.554;2023-02-15T09:23:50;2.20;99.90
23323;DHT22;11833;52.554;13.554;2023-02-15T09:26:21;2.20;99.90
23323;DHT22;11833;52.554;13.554;2023-02-15T09:28:52;2.40;99.90
23323;DHT22;11833;52.554;13.554;2023-02-15T09:31:24;2.40;99.90
23323;DHT22;11833;52.554;13.554;2023-02-15T09:33:51;2.80;99.90
23323;DHT22;11833;52.554;13.554;2023-02-15T09:36:26;2.60;99.90
23323;DHT22;11833;52.554;13.554;2023-02-15T09:39:07;2.50;99.90
23323;DHT22;11833;52.554;13.554;2023-02-15T09:47:42;2.80;99.90
23323;DHT22;11833;52.554;13.554;2023-02-15T10:10:18;3.40;99.90
23323;DHT22;11833;52.554;13.554;2023-02-15T10:12:57;3.20;99.90
23323;DHT22;11833;52.554;13.554;2023-02-15T10:26:54;3.80;99.90
23323;DHT22;11833;52.554;13.554;2023-02-15T10:35:44;4.10;99.90
23323;DHT22;11833;52.554;13.554;2023-02-15T10:38:10;4.10;99.90
23323;DHT22;11833;52.554;13.554;2023-02-15T10:41:15;4.10;99.90
23323;DHT22;11833;52.554;13.554;2023-02-15T10:58:47;4.50;99.90
23323;DHT22;11833;52.554;13.554;2023-02-15T11:06:35;5.40;99.90
23323;DHT22;11833;52.554;13.554;2023-02-15T11:09:12;5.60;99.90
23323;DHT22;11833;52.554;13.554;2023-02-15T11:11:40;5.70;99.90
23323;DHT22;11833;52.554;13.554;2023-02-15T11:14:17;6.00;99.90
23323;DHT22;11833;52.554;13.554;2023-02-15T11:16:52;6.40;99.90
23323;DHT22;11833;52.554;13.554;2023-02-15T11:19:25;7.60;99.90
23323;DHT22;11833;52.554;13.554;2023-02-15T11:21:57;7.80;99.90
23323;DHT22;11833;52.554;13.554;2023-02-15T11:24:27;8.40;99.90
23323;DHT22;11833;52.554;13.554;2023-02-15T11:27:15;8.90;99.90
23323;DHT22;11833;52.554;13.554;2023-02-15T11:35:05;9.40;99.90
23323;DHT22;11833;52.554;13.554;2023-02-15T11:43:03;10.60;99.90
23323;DHT22;11833;52.554;13.554;2023-02-15T11:45:33;11.00;99.90
23323;DHT22;11833;52.554;13.554;2023-02-15T11:48:00;10.70;97.50
23323;DHT22;11833;52.554;13.554;2023-02-15T11:50:30;10.70;95.90
23323;DHT22;11833;52.554;13.554;2023-02-15T11:53:31;11.20;99.90
23323;DHT22;11833;52.554;13.554;2023-02-15T11:55:59;11.90;99.90
23323;DHT22;11833;52.554;13.554;2023-02-15T12:01:31;12.20;99.90
23323;DHT22;11833;52.554;13.554;2023-02-15T12:06:58;12.30;99.90
23323;DHT22;11833;52.554;13.554;2023-02-15T12:12:26;13.20;82.20
23323;DHT22;11833;52.554;13.554;2023-02-15T12:14:58;13.40;87.60
23323;DHT22;11833;52.554;13.554;2023-02-15T12:17:40;13.10;91.90
23323;DHT22;11833;52.554;13.554;2023-02-15T12:22:39;13.50;90.80
23323;DHT22;11833;52.554;13.554;2023-02-15T12:25:52;13.80;80.30
23323;DHT22;11833;52.554;13.554;2023-02-15T12:31:20;15.40;91.60
23323;DHT22;11833;52.554;13.554;2023-02-15T12:33:51;15.60;69.50
23323;DHT22;11833;52.554;13.554;2023-02-15T12:36:21;16.00;68.60
23323;DHT22;11833;52.554;13.554;2023-02-15T12:39:18;16.10;84.30
23323;DHT22;11833;52.554;13.554;2023-02-15T12:44:28;16.90;73.20
23323;DHT22;11833;52.554;13.554;2023-02-15T12:49:44;15.80;63.80
23323;DHT22;11833;52.554;13.554;2023-02-15T12:54:46;16.00;67.70
23323;DHT22;11833;52.554;13.554;2023-02-15T12:57:28;16.00;64.60
23323;DHT22;11833;52.554;13.554;2023-02-15T13:05:51;16.50;76.90
23323;DHT22;11833;52.554;13.554;2023-02-15T13:08:17;16.70;74.00
23323;DHT22;11833;52.554;13.554;2023-02-15T13:11:05;17.20;61.90
23323;DHT22;11833;52.554;13.554;2023-02-15T13:13:47;17.40;58.70
23323;DHT22;11833;52.554;13.554;2023-02-15T13:16:35;17.50;61.60
23323;DHT22;11833;52.554;13.554;2023-02-15T13:19:34;17.30;58.70
23323;DHT22;11833;52.554;13.554;2023-02-15T13:22:05;18.60;74.70
23323;DHT22;11833;52.554;13.554;2023-02-15T13:24:40;18.80;61.10
23323;DHT22;11833;52.554;13.554;2023-02-15T13:27:14;19.80;65.10
23323;DHT22;11833;52.554;13.554;2023-02-15T13:29:45;18.90;57.50
23323;DHT22;11833;52.554;13.554;2023-02-15T13:32:31;18.10;54.90
23323;DHT22;11833;52.554;13.554;2023-02-15T13:35:02;18.50;62.60
23323;DHT22;11833;52.554;13.554;2023-02-15T13:49:39;17.10;64.20
23323;DHT22;11833;52.554;13.554;2023-02-15T13:52:23;16.90;64.50
23323;DHT22;11833;52.554;13.554;2023-02-15T14:13:08;17.90;55.90
23323;DHT22;11833;52.554;13.554;2023-02-15T14:15:58;17.80;54.30
23323;DHT22;11833;52.554;13.554;2023-02-15T14:18:40;18.60;59.20
23323;DHT22;11833;52.554;13.554;2023-02-15T14:22:05;18.10;59.40
23323;DHT22;11833;52.554;13.554;2023-02-15T14:30:20;17.10;58.20
23323;DHT22;11833;52.554;13.554;2023-02-15T14:33:01;17.50;57.30
23323;DHT22;11833;52.554;13.554;2023-02-15T14:35:31;17.90;58.60
23323;DHT22;11833;52.554;13.554;2023-02-15T14:38:37;18.10;58.10
23323;DHT22;11833;52.554;13.554;2023-02-15T14:47:09;17.20;57.60
23323;DHT22;11833;52.554;13.554;2023-02-15T14:49:38;17.50;57.40
23323;DHT22;11833;52.554;13.554;2023-02-15T14:52:06;17.90;56.10
23323;DHT22;11833;52.554;13.554;2023-02-15T14:59:41;17.30;60.20
23323;DHT22;11833;52.554;13.554;2023-02-15T15:02:17;16.90;59.40
23323;DHT22;11833;52.554;13.554;2023-02-15T15:05:06;16.40;59.00
23323;DHT22;11833;52.554;13.554;2023-02-15T15:07:48;15.90;60.70
23323;DHT22;11833;52.554;13.554;2023-02-15T15:12:44;15.80;61.40
23323;DHT22;11833;52.554;13.554;2023-02-15T15:15:33;15.70;60.90
23323;DHT22;11833;52.554;13.554;2023-02-15T15:18:07;16.00;60.60
23323;DHT22;11833;52.554;13.554;2023-02-15T15:20:44;16.10;60.40
23323;DHT22;11833;52.554;13.554;2023-02-15T15:25:54;15.70;61.20
23323;DHT22;11833;52.554;13.554;2023-02-15T15:49:55;16.10;59.00
23323;DHT22;11833;52.554;13.554;2023-02-15T15:52:22;15.60;59.80
23323;DHT22;11833;52.554;13.554;2023-02-15T15:54:53;15.50;61.30
23323;DHT22;11833;52.554;13.554;2023-02-15T15:57:28;15.30;60.70
23323;DHT22;11833;52.554;13.554;2023-02-15T15:59:56;15.00;62.50
23323;DHT22;11833;52.554;13.554;2023-02-15T16:02:26;14.50;64.10
23323;DHT22;11833;52.554;13.554;2023-02-15T16:04:52;14.00;65.90
23323;DHT22;11833;52.554;13.554;2023-02-15T16:09:59;13.10;69.70
23323;DHT22;11833;52.554;13.554;2023-02-15T16:12:34;12.80;71.00
23323;DHT22;11833;52.554;13.554;2023-02-15T16:15:11;12.40;72.70
23323;DHT22;11833;52.554;13.554;2023-02-15T16:17:42;12.30;73.60
23323;DHT22;11833;52.554;13.554;2023-02-15T16:22:46;12.00;75.10
23323;DHT22;11833;52.554;13.554;2023-02-15T16:25:29;11.80;75.80
23323;DHT22;11833;52.554;13.554;2023-02-15T16:28:05;11.70;76.80
23323;DHT22;11833;52.554;13.554;2023-02-15T16:30:34;11.50;77.90
23323;DHT22;11833;52.554;13.554;2023-02-15T16:33:12;11.20;78.70
23323;DHT22;11833;52.554;13.554;2023-02-15T16:35:58;11.10;79.80
23323;DHT22;11833;52.554;13.554;2023-02-15T16:41:21;10.80;82.00
23323;DHT22;11833;52.554;13.554;2023-02-15T16:43:50;10.70;82.20
23323;DHT22;11833;52.554;13.554;2023-02-15T16:46:36;10.60;83.40
23323;DHT22;11833;52.554;13.554;2023-02-15T16:49:16;10.60;83.80
23323;DHT22;11833;52.554;13.554;2023-02-15T16:51:44;10.50;84.20
23323;DHT22;11833;52.554;13.554;2023-02-15T16:54:21;10.40;85.40
23323;DHT22;11833;52.554;13.554;2023-02-15T16:56:47;10.30;86.10
23323;DHT22;11833;52.554;13.554;2023-02-15T17:02:06;10.10;87.90
23323;DHT22;11833;52.554;13.554;2023-02-15T17:04:38;10.00;88.10
23323;DHT22;11833;52.554;13.554;2023-02-15T17:07:17;10.00;88.60
23323;DHT22;11833;52.554;13.554;2023-02-15T17:09:51;9.90;89.90
23323;DHT22;11833;52.554;13.554;2023-02-15T17:12:47;9.90;90.00
23323;DHT22;11833;52.554;13.554;2023-02-15T17:15:35;9.80;90.20
23323;DHT22;11833;52.554;13.554;2023-02-15T17:18:16;9.80;91.10
23323;DHT22;11833;52.554;13.554;2023-02-15T17:20:45;9.70;90.90
23323;DHT22;11833;52.554;13.554;2023-02-15T17:23:41;9.70;91.10
23323;DHT22;11833;52.554;13.554;2023-02-15T17:28:59;9.60;91.50
23323;DHT22;11833;52.554;13.554;2023-02-15T17:31:32;9.60;91.50
23323;DHT22;11833;52.554;13.554;2023-02-15T17:34:00;9.50;91.80
23323;DHT22;11833;52.554;13.554;2023-02-15T17:36:29;9.40;92.30
23323;DHT22;11833;52.554;13.554;2023-02-15T17:41:46;9.30;92.90
23323;DHT22;11833;52.554;13.554;2023-02-15T17:44:12;9.30;93.30
23323;DHT22;11833;52.554;13.554;2023-02-15T17:46:41;9.30;93.40
23323;DHT22;11833;52.554;13.554;2023-02-15T17:49:07;9.20;93.90
23323;DHT22;11833;52.554;13.554;2023-02-15T17:52:02;9.20;93.90
23323;DHT22;11833;52.554;13.554;2023-02-15T17:54:28;9.10;94.60
23323;DHT22;11833;52.554;13.554;2023-02-15T17:57:13;9.10;94.70
23323;DHT22;11833;52.554;13.554;2023-02-15T17:59:40;9.00;95.00
23323;DHT22;11833;52.554;13.554;2023-02-15T18:02:27;8.90;95.10
23323;DHT22;11833;52.554;13.554;2023-02-15T18:05:16;8.80;96.00
23323;DHT22;11833;52.554;13.554;2023-02-15T18:08:01;8.80;96.50
23323;DHT22;11833;52.554;13.554;2023-02-15T18:10:46;8.70;97.10
23323;DHT22;11833;52.554;13.554;2023-02-15T18:13:30;8.70;97.60
23323;DHT22;11833;52.554;13.554;2023-02-15T18:15:56;8.70;98.00
23323;DHT22;11833;52.554;13.554;2023-02-15T18:18:22;8.70;98.00
23323;DHT22;11833;52.554;13.554;2023-02-15T18:20:49;8.70;98.30
23323;DHT22;11833;52.554;13.554;2023-02-15T18:23:15;8.50;99.00
23323;DHT22;11833;52.554;13.554;2023-02-15T18:25:40;8.50;99.00
23323;DHT22;11833;52.554;13.554;2023-02-15T18:28:07;8.50;99.90
23323;DHT22;11833;52.554;13.554;2023-02-15T18:30:35;8.50;99.90
23323;DHT22;11833;52.554;13.554;2023-02-15T18:33:01;8.50;99.90
23323;DHT22;11833;52.554;13.554;2023-02-15T18:35:30;8.40;99.90
23323;DHT22;11833;52.554;13.554;2023-02-15T18:37:58;8.40;99.90
23323;DHT22;11833;52.554;13.554;2023-02-15T18:40:26;8.30;99.90
23323;DHT22;11833;52.554;13.554;2023-02-15T18:42:53;8.40;99.90
23323;DHT22;11833;52.554;13.554;2023-02-15T18:45:26;8.30;99.90
23323;DHT22;11833;52.554;13.554;2023-02-15T18:47:57;8.30;99.90
23323;DHT22;11833;52.554;13.554;2023-02-15T18:50:24;8.30;99.90
23323;DHT22;11833;52.554;13.554;2023-02-15T18:52:51;8.30;99.90
23323;DHT22;11833;52.554;13.554;2023-02-15T18:55:21;8.20;99.90
23323;DHT22;11833;52.554;13.554;2023-02-15T18:57:50;8.10;99.90
23323;DHT22;11833;52.554;13.554;2023-02-15T19:00:26;8.20;99.90
23323;DHT22;11833;52.554;13.554;2023-02-15T19:02:53;8.10;99.90
23323;DHT22;11833;52.554;13.554;2023-02-15T19:05:20;8.10;99.90
23323;DHT22;11833;52.554;13.554;2023-02-15T19:07:47;8.10;99.90
23323;DHT22;11833;52.554;13.554;2023-02-15T19:10:20;8.10;99.90
23323;DHT22;11833;52.554;13.554;2023-02-15T19:12:48;8.00;99.90
23323;DHT22;11833;52.554;13.554;2023-02-15T19:15:19;7.90;99.90
23323;DHT22;11833;52.554;13.554;2023-02-15T19:17:46;7.90;99.90
23323;DHT22;11833;52.554;13.554;2023-02-15T19:22:51;7.80;99.90
23323;DHT22;11833;52.554;13.554;2023-02-15T19:25:28;7.80;99.90
23323;DHT22;11833;52.554;13.554;2023-02-15T19:27:56;7.80;99.90
23323;DHT22;11833;52.554;13.554;2023-02-15T19:30:28;7.70;99.90
23323;DHT22;11833;52.554;13.554;2023-02-15T19:32:55;7.70;99.90
23323;DHT22;11833;52.554;13.554;2023-02-15T19:35:29;7.70;99.90
23323;DHT22;11833;52.554;13.554;2023-02-15T19:37:59;7.70;99.90
23323;DHT22;11833;52.554;13.554;2023-02-15T19:40:28;7.70;99.90
23323;DHT22;11833;52.554;13.554;2023-02-15T19:42:55;7.70;99.90
23323;DHT22;11833;52.554;13.554;2023-02-15T19:45:26;7.70;99.90
23323;DHT22;11833;52.554;13.554;2023-02-15T19:47:53;7.70;99.90
23323;DHT22;11833;52.554;13.554;2023-02-15T19:50:22;7.70;99.90
23323;DHT22;11833;52.554;13.554;2023-02-15T19:52:49;7.60;99.90
23323;DHT22;11833;52.554;13.554;2023-02-15T19:55:24;7.60;99.90
23323;DHT22;11833;52.554;13.554;2023-02-15T19:57:56;7.60;99.90
23323;DHT22;11833;52.554;13.554;2023-02-15T20:00:24;7.60;99.90
23323;DHT22;11833;52.554;13.554;2023-02-15T20:02:55;7.60;99.90
23323;DHT22;11833;52.554;13.554;2023-02-15T20:05:22;7.50;99.90
23323;DHT22;11833;52.554;13.554;2023-02-15T20:07:50;7.50;99.90
23323;DHT22;11833;52.554;13.554;2023-02-15T20:10:22;7.50;99.90
23323;DHT22;11833;52.554;13.554;2023-02-15T20:12:49;7.40;99.90
23323;DHT22;11833;52.554;13.554;2023-02-15T20:17:57;7.40;99.90
23323;DHT22;11833;52.554;13.554;2023-02-15T20:25:46;7.20;99.90
23323;DHT22;11833;52.554;13.554;2023-02-15T20:28:23;7.20;99.90
23323;DHT22;11833;52.554;13.554;2023-02-15T20:30:50;7.10;99.90
23323;DHT22;11833;52.554;13.554;2023-02-15T20:33:17;7.10;99.90
23323;DHT22;11833;52.554;13.554;2023-02-15T20:35:45;7.10;99.90
23323;DHT22;11833;52.554;13.554;2023-02-15T20:38:23;7.10;99.90
23323;DHT22;11833;52.554;13.554;2023-02-15T20:40:51;7.00;99.90
23323;DHT22;11833;52.554;13.554;2023-02-15T20:43:36;7.00;99.90
23323;DHT22;11833;52.554;13.554;2023-02-15T20:46:02;6.90;99.90
23323;DHT22;11833;52.554;13.554;2023-02-15T20:48:28;6.80;99.90
23323;DHT22;11833;52.554;13.554;2023-02-15T20:50:54;6.70;99.90
23323;DHT22;11833;52.554;13.554;2023-02-15T20:53:23;6.60;99.90
23323;DHT22;11833;52.554;13.554;2023-02-15T20:55:50;6.60;99.90
23323;DHT22;11833;52.554;13.554;2023-02-15T20:58:26;6.50;99.90
23323;DHT22;11833;52.554;13.554;2023-02-15T21:00:54;6.50;99.90
23323;DHT22;11833;52.554;13.554;2023-02-15T21:03:23;6.40;99.90
23323;DHT22;11833;52.554;13.554;2023-02-15T21:05:56;6.40;99.90